createdAt,value
2018-11-21T06:58:00.442Z,25.90
2018-11-21T06:59:00.531Z,29.60
2018-11-21T07:00:00.617Z,30.40
2018-11-21T07:01:00.706Z,28.90
2018-11-21T07:02:00.796Z,30.10
2018-11-21T07:03:00.881Z,29.80
2018-11-21T07:04:00.969Z,29.40
2018-11-21T07:05:01.055Z,29.90
2018-11-21T07:06:01.146Z,30.70
2018-11-21T07:07:01.233Z,30.00
2018-11-21T07:08:01.325Z,29.70
2018-11-21T07:09:01.412Z,30.50
2018-11-21T07:10:01.499Z,30.60
2018-11-21T07:11:01.585Z,30.50
2018-11-21T07:12:01.678Z,30.90
2018-11-21T07:13:01.761Z,31.70
2018-11-21T07:14:07.086Z,30.10
2018-11-21T07:15:01.937Z,29.90
2018-11-21T07:16:02.027Z,29.70
2018-11-21T07:17:02.113Z,30.60
2018-11-21T07:18:02.203Z,30.40
2018-11-21T07:19:02.290Z,31.30
2018-11-21T07:20:02.377Z,30.80
2018-11-21T07:21:02.467Z,30.00
2018-11-21T07:22:02.552Z,30.60
2018-11-21T07:23:02.642Z,29.00
2018-11-21T07:24:02.726Z,29.80
2018-11-21T07:25:02.818Z,29.60
2018-11-21T07:26:02.911Z,29.90
2018-11-21T07:27:02.993Z,30.40
2018-11-21T07:28:03.081Z,30.60
2018-11-21T07:29:03.171Z,30.20
2018-11-21T07:30:03.258Z,29.80
2018-11-21T07:31:03.343Z,30.70
2018-11-21T07:32:03.444Z,30.90
2018-11-21T07:33:03.531Z,30.90
2018-11-21T07:34:03.624Z,30.00
2018-11-21T07:35:03.706Z,30.10
2018-11-21T07:36:03.794Z,30.70
2018-11-21T07:37:03.882Z,31.40
2018-11-21T07:38:03.974Z,30.60
2018-11-21T07:39:04.063Z,29.60
2018-11-21T07:40:04.174Z,30.00
2018-11-21T07:41:04.247Z,30.40
2018-11-21T07:42:04.329Z,29.60
2018-11-21T07:43:04.414Z,29.50
2018-11-21T07:44:04.506Z,29.00
2018-11-21T07:45:04.594Z,29.10
2018-11-21T07:46:04.682Z,29.60
2018-11-21T07:47:04.773Z,30.90
2018-11-21T07:48:04.859Z,29.60
2018-11-21T07:49:04.951Z,29.10
2018-11-21T07:50:05.040Z,29.90
2018-11-21T07:51:05.124Z,29.90
2018-11-21T07:52:05.217Z,29.40
2018-11-21T07:53:05.297Z,28.70
2018-11-21T07:54:05.386Z,29.10
2018-11-21T07:55:05.480Z,28.30
2018-11-21T07:56:05.567Z,28.90
2018-11-21T07:57:05.652Z,28.60
2018-11-21T07:58:05.744Z,29.90
2018-11-21T07:59:05.831Z,29.70
2018-11-21T08:00:05.920Z,28.30
2018-11-21T08:01:06.011Z,28.20
2018-11-21T08:02:06.095Z,29.30
2018-11-21T08:03:06.182Z,31.20
2018-11-21T08:04:06.273Z,28.40
2018-11-21T08:05:06.360Z,28.40
2018-11-21T08:06:06.438Z,29.00
2018-11-21T08:07:06.519Z,31.00
2018-11-21T08:08:06.613Z,31.20
2018-11-21T08:09:06.696Z,29.80
2018-11-21T08:10:06.784Z,29.00
2018-11-21T08:11:06.881Z,29.20
2018-11-21T08:12:06.963Z,29.70
2018-11-21T08:13:07.054Z,29.70
2018-11-21T08:14:07.139Z,29.50
2018-11-21T08:15:08.117Z,29.70
2018-11-21T08:16:07.316Z,28.30
2018-11-21T08:17:07.406Z,30.30
2018-11-21T08:18:07.500Z,29.90
2018-11-21T08:19:07.583Z,29.30
2018-11-21T08:20:07.669Z,30.30
2018-11-21T08:21:07.755Z,29.70
2018-11-21T08:22:07.847Z,30.00
2018-11-21T08:23:07.935Z,30.40
2018-11-21T08:24:08.022Z,29.10
2018-11-21T08:25:08.112Z,30.80
2018-11-21T08:26:08.197Z,29.30
2018-11-21T08:27:08.286Z,30.50
2018-11-21T08:28:08.378Z,30.70
2018-11-21T08:29:08.467Z,30.30
2018-11-21T08:30:08.557Z,28.80
2018-11-21T08:31:08.641Z,30.10
2018-11-21T08:32:08.730Z,30.00
2018-11-21T08:33:08.820Z,29.10
2018-11-21T08:34:08.909Z,29.90
2018-11-21T08:35:09.001Z,29.30
2018-11-21T08:36:09.083Z,31.00
2018-11-21T08:37:09.170Z,30.00
2018-11-21T08:38:09.261Z,30.80
2018-11-21T08:39:09.344Z,29.10
2018-11-21T08:40:09.432Z,29.20
2018-11-21T08:41:09.519Z,30.10
2018-11-21T08:42:09.605Z,30.40
2018-11-21T08:43:09.695Z,29.10
2018-11-21T08:44:09.787Z,29.90
2018-11-21T08:45:09.872Z,29.00
2018-11-21T08:46:09.961Z,30.30
2018-11-21T08:47:10.048Z,30.30
2018-11-21T08:48:10.134Z,29.50
2018-11-21T08:49:10.223Z,30.30
2018-11-21T08:50:10.308Z,30.70
2018-11-21T08:51:10.398Z,30.20
2018-11-21T08:52:10.486Z,29.70
2018-11-21T08:53:10.575Z,30.60
2018-11-21T08:54:10.663Z,30.50
2018-11-21T08:55:10.751Z,30.30
2018-11-21T08:56:10.836Z,29.70
2018-11-21T08:57:10.924Z,29.10
2018-11-21T08:58:11.012Z,30.30
2018-11-21T08:59:11.101Z,31.30
2018-11-21T09:00:11.189Z,30.10
2018-11-21T09:01:11.277Z,30.80
2018-11-21T09:02:11.363Z,30.60
2018-11-21T09:03:11.450Z,30.50
2018-11-21T09:04:11.539Z,30.80
2018-11-21T09:05:11.627Z,31.70
2018-11-21T09:06:11.716Z,31.30
2018-11-21T09:07:11.805Z,31.60
2018-11-21T09:08:11.891Z,31.00
2018-11-21T09:09:11.982Z,31.60
2018-11-21T09:10:12.067Z,31.90
2018-11-21T09:11:12.155Z,30.10
2018-11-21T09:12:15.346Z,30.80
2018-11-21T09:13:12.331Z,31.20
2018-11-21T09:14:12.421Z,32.10
2018-11-21T09:15:12.508Z,31.20
2018-11-21T09:16:12.597Z,32.60
2018-11-21T09:17:12.684Z,32.10
2018-11-21T09:18:12.772Z,32.20
2018-11-21T09:19:12.860Z,32.90
2018-11-21T09:20:12.953Z,31.50
2018-11-21T09:21:13.041Z,33.60
2018-11-21T09:22:13.129Z,33.10
2018-11-21T09:23:13.215Z,33.50
2018-11-21T09:24:13.306Z,33.20
2018-11-21T09:25:13.392Z,32.70
2018-11-21T09:26:13.481Z,34.30
2018-11-21T09:27:13.569Z,33.70
2018-11-21T09:28:13.658Z,33.50
2018-11-21T09:29:13.749Z,34.40
2018-11-21T09:30:13.832Z,33.30
2018-11-21T09:31:13.922Z,33.60
2018-11-21T09:32:14.010Z,33.10
2018-11-21T09:33:14.100Z,32.80
2018-11-21T09:34:14.191Z,33.10
2018-11-21T09:35:14.277Z,32.60
2018-11-21T09:36:14.385Z,33.20
2018-11-21T09:37:14.459Z,33.50
2018-11-21T09:38:14.536Z,32.60
2018-11-21T09:39:14.624Z,32.80
2018-11-21T09:40:14.715Z,31.50
2018-11-21T09:41:14.798Z,31.50
2018-11-21T09:42:14.909Z,32.00
2018-11-21T09:43:15.027Z,32.00
2018-11-21T09:44:15.096Z,32.80
2018-11-21T09:45:15.182Z,33.00
2018-11-21T09:46:17.242Z,32.10
2018-11-21T09:47:15.361Z,31.70
2018-11-21T09:48:15.470Z,31.10
2018-11-21T09:49:15.558Z,32.50
2018-11-21T09:50:15.650Z,33.00
2018-11-21T09:51:15.739Z,31.90
2018-11-21T09:52:15.826Z,32.40
2018-11-21T09:53:15.937Z,32.30
2018-11-21T09:54:16.008Z,32.70
2018-11-21T09:55:16.097Z,33.00
2018-11-21T09:56:16.191Z,33.90
2018-11-21T09:57:16.272Z,34.30
2018-11-21T09:58:16.363Z,34.10
2018-11-21T09:59:16.449Z,33.90
2018-11-21T10:00:16.538Z,33.30
2018-11-21T10:01:16.626Z,33.50
2018-11-21T10:02:16.720Z,33.20
2018-11-21T10:03:16.810Z,31.60
2018-11-21T10:04:16.894Z,32.50
2018-11-21T10:05:16.983Z,31.60
2018-11-21T10:06:17.074Z,32.00
2018-11-21T10:07:17.161Z,31.70
2018-11-21T10:08:17.250Z,31.40
2018-11-21T10:09:17.338Z,31.50
2018-11-21T10:10:17.426Z,31.40
2018-11-21T10:11:17.515Z,32.50
2018-11-21T10:12:17.603Z,32.10
2018-11-21T10:13:17.694Z,32.00
2018-11-21T10:14:17.780Z,32.00
2018-11-21T10:15:17.868Z,31.60
2018-11-21T10:16:17.957Z,31.80
2018-11-21T10:17:18.042Z,32.30
2018-11-21T10:18:18.133Z,32.70
2018-11-21T10:19:18.220Z,33.00
2018-11-21T10:20:18.309Z,32.90
2018-11-21T10:21:18.399Z,32.80
2018-11-21T10:22:18.491Z,32.80
2018-11-21T10:23:18.576Z,33.00
2018-11-21T10:24:18.663Z,33.10
2018-11-21T10:25:18.753Z,33.10
2018-11-21T10:26:18.845Z,33.60
2018-11-21T10:27:18.928Z,32.60
2018-11-21T10:28:19.017Z,33.30
2018-11-21T10:29:19.106Z,34.20
2018-11-21T10:30:19.196Z,33.50
2018-11-21T10:31:19.296Z,33.50
2018-11-21T10:32:19.374Z,33.90
2018-11-21T10:33:19.462Z,33.40
2018-11-21T10:34:19.554Z,34.20
2018-11-21T10:35:19.644Z,34.20
2018-11-21T10:36:19.733Z,32.90
2018-11-21T10:37:19.837Z,34.60
2018-11-21T10:38:19.927Z,34.30
2018-11-21T10:39:20.015Z,32.80
2018-11-21T10:40:20.107Z,33.60
2018-11-21T10:41:20.197Z,34.10
2018-11-21T10:42:20.285Z,32.50
2018-11-21T10:43:20.373Z,32.70
2018-11-21T10:44:20.464Z,34.50
2018-11-21T10:45:20.550Z,32.20
2018-11-21T10:46:20.639Z,34.20
2018-11-21T10:47:20.728Z,31.60
2018-11-21T10:48:20.819Z,32.10
2018-11-21T10:49:20.906Z,33.40
2018-11-21T10:50:20.996Z,32.70
2018-11-21T10:51:21.086Z,33.10
2018-11-21T10:52:21.177Z,32.80
2018-11-21T10:53:21.265Z,33.70
2018-11-21T10:54:21.351Z,32.30
2018-11-21T10:55:21.441Z,32.50
2018-11-21T10:56:21.531Z,32.10
2018-11-21T10:57:21.622Z,32.50
2018-11-21T10:58:21.708Z,33.60
2018-11-21T10:59:21.795Z,33.20
2018-11-21T11:00:21.883Z,33.40
2018-11-21T11:01:21.971Z,34.20
2018-11-21T11:02:22.059Z,33.20
2018-11-21T11:03:22.152Z,33.20
2018-11-21T11:04:22.238Z,32.80
2018-11-21T11:05:22.327Z,32.70
2018-11-21T11:06:22.416Z,32.50
2018-11-21T11:07:22.504Z,32.30
2018-11-21T11:08:22.592Z,34.90
2018-11-21T11:09:22.682Z,33.20
2018-11-21T11:10:22.778Z,32.30
2018-11-21T11:11:22.844Z,32.20
2018-11-21T11:12:22.944Z,33.20
2018-11-21T11:13:23.016Z,32.10
2018-11-21T11:14:23.104Z,33.80
2018-11-21T11:15:23.193Z,33.20
2018-11-21T11:16:23.282Z,33.80
2018-11-21T11:17:23.373Z,33.80
2018-11-21T11:18:23.460Z,32.80
2018-11-21T11:19:23.549Z,33.70
2018-11-21T11:20:23.638Z,33.10
2018-11-21T11:21:23.733Z,33.70
2018-11-21T11:22:23.815Z,33.90
2018-11-21T11:23:23.904Z,33.60
2018-11-21T11:24:23.994Z,35.30
2018-11-21T11:25:24.081Z,33.30
2018-11-21T11:26:24.173Z,34.50
2018-11-21T11:27:24.263Z,34.80
2018-11-21T11:28:24.349Z,34.50
2018-11-21T11:29:24.442Z,33.30
2018-11-21T11:30:24.530Z,34.20
2018-11-21T11:31:24.617Z,35.20
2018-11-21T11:32:24.704Z,35.00
2018-11-21T11:33:24.791Z,34.50
2018-11-21T11:34:24.880Z,35.90
2018-11-21T11:35:24.968Z,35.50
2018-11-21T11:36:25.060Z,35.70
2018-11-21T11:37:25.151Z,36.50
2018-11-21T11:38:25.240Z,35.70
2018-11-21T11:39:25.327Z,35.00
2018-11-21T11:40:25.416Z,35.60
2018-11-21T11:41:25.507Z,36.40
2018-11-21T11:42:25.592Z,36.30
2018-11-21T11:43:25.681Z,35.90
2018-11-21T11:44:25.769Z,35.90
2018-11-21T11:45:25.854Z,36.00
2018-11-21T11:46:25.947Z,35.00
2018-11-21T11:47:26.034Z,36.00
2018-11-21T11:48:26.126Z,35.60
2018-11-21T11:49:26.214Z,35.20
2018-11-21T11:50:26.299Z,35.50
2018-11-21T11:51:26.388Z,35.90
2018-11-21T11:52:26.486Z,35.50
2018-11-21T11:53:26.567Z,35.80
2018-11-21T11:54:26.652Z,36.10
2018-11-21T11:55:26.739Z,35.50
2018-11-21T11:56:26.828Z,33.80
2018-11-21T11:57:26.915Z,35.50
2018-11-21T11:58:27.013Z,34.50
2018-11-21T11:59:27.096Z,36.20
2018-11-21T12:00:27.184Z,35.50
2018-11-21T12:01:27.273Z,36.60
2018-11-21T12:02:27.362Z,36.90
2018-11-21T12:03:27.452Z,35.60
2018-11-21T12:04:27.541Z,36.00
2018-11-21T12:05:27.627Z,37.50
2018-11-21T12:06:27.716Z,37.10
2018-11-21T12:07:27.806Z,38.80
2018-11-21T12:08:27.894Z,37.10
2018-11-21T12:09:27.979Z,36.80
2018-11-21T12:10:28.063Z,36.40
2018-11-21T12:11:28.150Z,37.30
2018-11-21T12:12:28.237Z,38.10
2018-11-21T12:13:28.329Z,37.80
2018-11-21T12:14:28.419Z,38.10
2018-11-21T12:15:28.510Z,38.40
2018-11-21T12:16:28.597Z,37.70
2018-11-21T12:17:28.690Z,37.10
2018-11-21T12:18:28.778Z,37.10
2018-11-21T12:19:28.867Z,37.20
2018-11-21T12:20:28.959Z,36.40
2018-11-21T12:21:29.047Z,36.30
2018-11-21T12:22:29.137Z,37.10
2018-11-21T12:23:29.225Z,37.60
2018-11-21T12:24:29.316Z,36.60
2018-11-21T12:25:29.402Z,36.30
2018-11-21T12:26:29.490Z,37.10
2018-11-21T12:27:29.578Z,35.00
2018-11-21T12:28:29.665Z,35.90
2018-11-21T12:29:29.769Z,37.60
2018-11-21T12:30:29.842Z,37.30
2018-11-21T12:31:29.928Z,36.90
2018-11-21T12:32:30.017Z,37.60
2018-11-21T12:33:30.105Z,36.80
2018-11-21T12:34:30.198Z,36.70
2018-11-21T12:35:30.289Z,37.50
2018-11-21T12:36:30.375Z,36.60
2018-11-21T12:37:30.465Z,36.20
2018-11-21T12:38:30.551Z,36.20
2018-11-21T12:39:30.643Z,37.10
2018-11-21T12:40:30.727Z,36.50
2018-11-21T12:41:30.815Z,37.80
2018-11-21T12:42:30.931Z,37.20
2018-11-21T12:43:30.994Z,37.00
2018-11-21T12:44:31.087Z,37.30
2018-11-21T12:45:31.175Z,35.40
2018-11-21T12:46:31.264Z,36.10
2018-11-21T12:47:31.352Z,37.60
2018-11-21T12:48:31.443Z,35.60
2018-11-21T12:49:31.534Z,36.20
2018-11-21T12:50:31.622Z,36.10
2018-11-21T12:51:31.713Z,36.50
2018-11-21T12:52:31.800Z,35.70
2018-11-21T12:53:31.887Z,36.70
2018-11-21T12:54:31.981Z,35.40
2018-11-21T12:55:32.064Z,36.00
2018-11-21T12:56:32.152Z,35.10
2018-11-21T12:57:32.289Z,35.90
2018-11-21T12:58:32.331Z,35.90
2018-11-21T12:59:32.419Z,35.30
2018-11-21T13:00:32.508Z,35.90
2018-11-21T13:01:32.596Z,35.70
2018-11-21T13:02:32.683Z,35.30
2018-11-21T13:03:32.770Z,37.80
2018-11-21T13:04:32.860Z,36.20
2018-11-21T13:05:32.951Z,37.10
2018-11-21T13:06:33.043Z,36.70
2018-11-21T13:07:33.132Z,37.60
2018-11-21T13:08:33.215Z,37.10
2018-11-21T13:09:33.304Z,36.00
2018-11-21T13:10:33.391Z,35.20
2018-11-21T13:11:33.480Z,38.00
2018-11-21T13:12:33.568Z,37.00
2018-11-21T13:13:33.656Z,35.60
2018-11-21T13:14:33.745Z,37.60
2018-11-21T13:15:33.836Z,37.70
2018-11-21T13:16:33.920Z,37.40
2018-11-21T13:17:34.027Z,36.20
2018-11-21T13:18:34.093Z,36.00
2018-11-21T13:19:34.179Z,37.50
2018-11-21T13:20:34.268Z,38.50
2018-11-21T13:21:34.360Z,38.90
2018-11-21T13:22:34.451Z,38.30
2018-11-21T13:23:34.534Z,37.50
2018-11-21T13:24:34.621Z,37.00
2018-11-21T13:25:34.712Z,37.80
2018-11-21T13:26:34.797Z,35.30
2018-11-21T13:27:34.885Z,36.90
2018-11-21T13:28:34.972Z,38.00
2018-11-21T13:29:35.060Z,38.10
2018-11-21T13:30:35.151Z,38.40
2018-11-21T13:31:35.242Z,37.80
2018-11-21T13:32:35.330Z,36.70
2018-11-21T13:33:35.417Z,37.60
2018-11-21T13:34:35.507Z,37.60
2018-11-21T13:35:35.596Z,38.10
2018-11-21T13:36:35.682Z,38.20
2018-11-21T13:37:35.769Z,36.90
2018-11-21T13:38:35.861Z,37.00
2018-11-21T13:39:35.947Z,38.30
2018-11-21T13:40:36.035Z,38.30
2018-11-21T13:41:36.125Z,36.40
2018-11-21T13:42:36.215Z,37.90
2018-11-21T13:43:36.301Z,38.30
2018-11-21T13:44:36.388Z,38.80
2018-11-21T13:45:36.475Z,40.10
2018-11-21T13:46:36.563Z,39.10
2018-11-21T13:47:36.650Z,39.10
2018-11-21T13:48:36.746Z,39.60
2018-11-21T13:49:36.824Z,39.50
2018-11-21T13:50:36.914Z,37.80
2018-11-21T13:51:37.003Z,38.00
2018-11-21T13:52:37.095Z,37.30
2018-11-21T13:53:37.177Z,38.30
2018-11-21T13:54:37.265Z,39.20
2018-11-21T13:55:37.357Z,38.30
2018-11-21T13:56:37.446Z,39.30
2018-11-21T13:57:37.537Z,39.10
2018-11-21T13:58:37.626Z,38.70
2018-11-21T13:59:37.715Z,39.40
2018-11-21T14:00:37.808Z,38.70
2018-11-21T14:01:37.892Z,37.40
2018-11-21T14:02:37.980Z,39.40
2018-11-21T14:03:38.070Z,39.10
2018-11-21T14:04:38.157Z,37.70
2018-11-21T14:05:38.246Z,39.00
2018-11-21T14:06:38.333Z,38.80
2018-11-21T14:07:38.420Z,38.40
2018-11-21T14:08:38.510Z,38.80
2018-11-21T14:09:38.596Z,37.80
2018-11-21T14:10:38.684Z,38.80
2018-11-21T14:11:38.773Z,39.10
2018-11-21T14:12:38.860Z,39.40
2018-11-21T14:13:38.956Z,38.90
2018-11-21T14:14:39.035Z,40.30
2018-11-21T14:15:39.122Z,40.20
2018-11-21T14:16:39.212Z,40.60
2018-11-21T14:17:39.301Z,40.90
2018-11-21T14:18:39.393Z,38.90
2018-11-21T14:19:39.476Z,39.80
2018-11-21T14:20:39.629Z,37.20
2018-11-21T14:21:39.653Z,39.00
2018-11-21T14:22:39.741Z,38.50
2018-11-21T14:23:39.827Z,38.20
2018-11-21T14:24:39.921Z,40.00
2018-11-21T14:25:40.008Z,39.20
2018-11-21T14:26:40.095Z,39.50
2018-11-21T14:27:40.183Z,38.50
2018-11-21T14:28:40.275Z,38.30
2018-11-21T14:29:40.364Z,39.90
2018-11-21T14:30:40.450Z,38.40
2018-11-21T14:31:40.539Z,38.40
2018-11-21T14:32:40.627Z,38.60
2018-11-21T14:33:40.716Z,38.60
2018-11-21T14:34:40.805Z,39.40
2018-11-21T14:35:40.893Z,38.90
2018-11-21T14:36:40.980Z,38.30
2018-11-21T14:37:41.070Z,39.80
2018-11-21T14:38:41.155Z,40.50
2018-11-21T14:39:41.244Z,39.50
2018-11-21T14:40:41.334Z,40.50
2018-11-21T14:41:41.420Z,41.40
2018-11-21T14:42:41.508Z,41.20
2018-11-21T14:43:41.599Z,40.50
2018-11-21T14:44:41.686Z,39.40
2018-11-21T14:45:41.774Z,41.70
2018-11-21T14:46:41.859Z,40.70
2018-11-21T14:47:41.947Z,40.50
2018-11-21T14:48:42.033Z,40.60
2018-11-21T14:49:42.123Z,39.50
2018-11-21T14:50:42.213Z,39.70
2018-11-21T14:51:42.298Z,40.50
2018-11-21T14:52:42.391Z,40.60
2018-11-21T14:53:42.990Z,41.70
2018-11-21T14:54:42.564Z,39.20
2018-11-21T14:55:42.651Z,39.50
2018-11-21T14:56:42.747Z,41.50
2018-11-21T14:57:42.830Z,39.90
2018-11-21T14:58:42.919Z,41.20
2018-11-21T14:59:43.005Z,40.10
2018-11-21T15:00:43.096Z,39.90
2018-11-21T15:01:43.185Z,41.50
2018-11-21T15:02:43.272Z,40.60
2018-11-21T15:03:43.362Z,41.30
2018-11-21T15:04:43.449Z,42.20
2018-11-21T15:05:43.534Z,41.50
2018-11-21T15:06:43.623Z,42.70
2018-11-21T15:07:43.710Z,42.20
2018-11-21T15:08:43.796Z,42.50
2018-11-21T15:09:43.884Z,41.40
2018-11-21T15:10:43.972Z,41.30
2018-11-21T15:11:44.061Z,41.20
2018-11-21T15:12:44.149Z,40.80
2018-11-21T15:13:44.237Z,40.90
2018-11-21T15:14:44.332Z,40.50
2018-11-21T15:15:44.415Z,40.10
2018-11-21T15:16:44.502Z,41.50
2018-11-21T15:17:44.589Z,40.40
2018-11-21T15:18:44.685Z,41.80
2018-11-21T15:19:44.770Z,40.70
2018-11-21T15:20:44.856Z,40.20
2018-11-21T15:21:44.945Z,40.40
2018-11-21T15:22:45.029Z,42.30
2018-11-21T15:23:45.119Z,41.50
2018-11-21T15:24:45.203Z,42.40
2018-11-21T15:25:45.293Z,42.30
2018-11-21T15:26:45.382Z,41.10
2018-11-21T15:27:45.470Z,42.40
2018-11-21T15:28:45.555Z,42.10
2018-11-21T15:29:45.645Z,43.70
2018-11-21T15:30:45.734Z,42.20
2018-11-21T15:31:45.821Z,41.70
2018-11-21T15:32:45.909Z,41.60
2018-11-21T15:33:45.999Z,40.70
2018-11-21T15:34:46.089Z,40.90
2018-11-21T15:35:46.181Z,42.20
2018-11-21T15:36:46.271Z,40.10
2018-11-21T15:37:46.356Z,42.00
2018-11-21T15:38:46.445Z,41.80
2018-11-21T15:39:46.533Z,42.60
2018-11-21T15:40:47.037Z,41.80
2018-11-21T15:41:46.707Z,41.90
2018-11-21T15:42:46.797Z,44.40
2018-11-21T15:43:46.887Z,41.70
2018-11-21T15:44:46.972Z,41.90
2018-11-21T15:45:47.064Z,42.80
2018-11-21T15:46:47.147Z,42.00
2018-11-21T15:47:47.234Z,40.40
2018-11-21T15:48:47.326Z,42.80
2018-11-21T15:49:47.414Z,44.80
2018-11-21T15:50:47.501Z,40.60
2018-11-21T15:51:47.593Z,40.80
2018-11-21T15:52:52.705Z,41.70
2018-11-21T15:53:47.768Z,45.00
2018-11-21T15:54:47.851Z,41.70
2018-11-21T15:55:47.937Z,47.10
2018-11-21T15:56:48.027Z,43.90
2018-11-21T15:57:48.110Z,41.90
2018-11-21T15:58:48.201Z,42.10
2018-11-21T15:59:48.287Z,48.10
2018-11-21T16:00:48.388Z,44.80
2018-11-21T16:01:48.456Z,44.80
2018-11-21T16:02:48.546Z,41.60
2018-11-21T16:03:48.631Z,42.30
2018-11-21T16:04:48.720Z,42.20
2018-11-21T16:05:48.808Z,42.30
2018-11-21T16:06:48.897Z,40.90
2018-11-21T16:07:48.983Z,44.30
2018-11-21T16:08:49.074Z,46.00
2018-11-21T16:09:49.160Z,45.90
2018-11-21T16:10:49.248Z,45.00
2018-11-21T16:11:49.336Z,44.30
2018-11-21T16:12:49.423Z,41.80
2018-11-21T16:13:49.511Z,42.70
2018-11-21T16:14:49.599Z,41.80
2018-11-21T16:15:49.684Z,43.10
2018-11-21T16:16:49.774Z,44.40
2018-11-21T16:17:49.861Z,42.40
2018-11-21T16:18:49.955Z,41.60
2018-11-21T16:19:50.037Z,43.90
2018-11-21T16:20:50.123Z,43.20
2018-11-21T16:21:50.211Z,44.50
2018-11-21T16:22:50.298Z,42.20
2018-11-21T16:23:50.386Z,42.60
2018-11-21T16:24:50.476Z,43.00
2018-11-21T16:25:50.563Z,43.50
2018-11-21T16:26:50.648Z,42.90
2018-11-21T16:27:50.738Z,42.50
2018-11-21T16:28:50.826Z,42.70
2018-11-21T16:29:50.915Z,41.30
2018-11-21T16:30:51.000Z,42.90
2018-11-21T16:31:51.088Z,42.50
2018-11-21T16:32:51.177Z,42.60
2018-11-21T16:33:51.264Z,41.90
2018-11-21T16:34:51.349Z,42.30
2018-11-21T16:35:51.437Z,42.90
2018-11-21T16:36:51.523Z,40.70
2018-11-21T16:37:51.612Z,43.70
2018-11-21T16:38:51.698Z,42.40
2018-11-21T16:39:51.790Z,43.90
2018-11-21T16:40:51.873Z,41.90
2018-11-21T16:41:51.957Z,43.30
2018-11-21T16:42:52.048Z,43.80
2018-11-21T16:43:52.134Z,42.70
2018-11-21T16:44:52.220Z,40.80
2018-11-21T16:45:52.312Z,42.20
2018-11-21T16:46:52.400Z,42.70
2018-11-21T16:47:52.486Z,42.60
2018-11-21T16:48:52.577Z,43.80
2018-11-21T16:49:52.663Z,43.70
2018-11-21T16:50:52.747Z,43.00
2018-11-21T16:51:52.836Z,42.20
2018-11-21T16:52:52.923Z,41.40
2018-11-21T16:53:53.010Z,42.50
2018-11-21T16:54:53.096Z,43.20
2018-11-21T16:55:53.184Z,46.50
2018-11-21T16:56:53.271Z,44.40
2018-11-21T16:57:53.356Z,43.20
2018-11-21T16:58:53.445Z,46.00
2018-11-21T16:59:53.534Z,42.50
2018-11-21T17:00:53.627Z,42.60
2018-11-21T17:01:53.747Z,43.20
2018-11-21T17:02:53.800Z,42.70
2018-11-21T17:03:53.887Z,39.30
2018-11-21T17:04:53.974Z,42.90
2018-11-21T17:05:54.061Z,42.80
2018-11-21T17:06:54.152Z,44.50
2018-11-21T17:07:54.236Z,42.00
2018-11-21T17:08:54.324Z,40.60
2018-11-21T17:09:54.412Z,40.10
2018-11-21T17:10:54.501Z,41.90
2018-11-21T17:11:54.593Z,41.40
2018-11-21T17:12:54.678Z,40.90
2018-11-21T17:13:54.767Z,40.50
2018-11-21T17:14:54.851Z,41.40
2018-11-21T17:15:54.937Z,39.80
2018-11-21T17:16:55.025Z,40.20
2018-11-21T17:17:55.111Z,41.30
2018-11-21T17:18:55.198Z,40.50
2018-11-21T17:19:55.290Z,39.40
2018-11-21T17:20:55.373Z,40.60
2018-11-21T17:21:55.460Z,39.30
2018-11-21T17:22:55.546Z,41.30
2018-11-21T17:23:55.634Z,38.00
2018-11-21T17:24:55.720Z,38.10
2018-11-21T17:25:55.812Z,38.40
2018-11-21T17:26:55.899Z,37.30
2018-11-21T17:27:55.983Z,38.10
2018-11-21T17:28:56.071Z,39.70
2018-11-21T17:29:56.163Z,39.50
2018-11-21T17:30:56.253Z,37.90
2018-11-21T17:31:56.341Z,38.90
2018-11-21T17:32:56.427Z,37.60
2018-11-21T17:33:56.515Z,36.90
2018-11-21T17:34:56.599Z,37.80
2018-11-21T17:35:56.686Z,38.20
2018-11-21T17:36:56.777Z,37.00
2018-11-21T17:38:01.952Z,37.70
2018-11-21T17:38:56.941Z,37.90
2018-11-21T17:39:57.027Z,36.50
2018-11-21T17:40:57.116Z,37.70
2018-11-21T17:41:57.202Z,37.50
2018-11-21T17:42:57.289Z,39.40
2018-11-21T17:43:57.376Z,36.20
2018-11-21T17:44:57.465Z,37.70
2018-11-21T17:45:57.676Z,37.20
2018-11-21T17:46:57.638Z,37.60
2018-11-21T17:47:57.725Z,36.50
2018-11-21T17:48:57.814Z,36.00
2018-11-21T17:49:57.897Z,35.80
2018-11-21T17:50:57.985Z,37.20
2018-11-21T17:51:58.073Z,36.20
2018-11-21T17:52:58.160Z,36.60
2018-11-21T17:53:58.316Z,36.00
2018-11-21T17:54:58.332Z,35.90
2018-11-21T17:55:58.419Z,36.20
2018-11-21T17:56:58.509Z,36.00
2018-11-21T17:57:58.625Z,36.60
2018-11-21T17:58:58.686Z,35.40
2018-11-21T17:59:58.777Z,35.60
2018-11-21T18:00:58.861Z,35.70
2018-11-21T18:01:58.949Z,34.00
2018-11-21T18:02:59.041Z,35.10
2018-11-21T18:03:59.126Z,35.40
2018-11-21T18:04:59.215Z,34.60
2018-11-21T18:05:59.308Z,35.10
2018-11-21T18:06:59.392Z,34.50
2018-11-21T18:07:59.481Z,33.80
2018-11-21T18:08:59.570Z,34.30
2018-11-21T18:09:59.655Z,34.30
2018-11-21T18:10:59.746Z,33.70
2018-11-21T18:11:59.834Z,33.50
2018-11-21T18:12:59.928Z,33.80
2018-11-21T18:14:00.011Z,34.40
2018-11-21T18:15:00.100Z,33.70
2018-11-21T18:16:00.185Z,33.80
2018-11-21T18:17:00.274Z,33.80
2018-11-21T18:18:00.364Z,33.80
2018-11-21T18:19:00.450Z,34.40
2018-11-21T18:20:00.540Z,33.40
2018-11-21T18:21:00.621Z,34.20
2018-11-21T18:22:00.711Z,33.60
2018-11-21T18:23:00.799Z,34.20
2018-11-21T18:24:00.887Z,35.40
2018-11-21T18:25:00.978Z,33.00
2018-11-21T18:26:01.063Z,33.20
2018-11-21T18:27:01.152Z,32.80
2018-11-21T18:28:01.239Z,33.50
2018-11-21T18:29:01.328Z,33.90
2018-11-21T18:30:01.418Z,33.10
2018-11-21T18:31:01.503Z,34.00
2018-11-21T18:32:01.590Z,33.80
2018-11-21T18:33:01.707Z,33.50
2018-11-21T18:34:01.771Z,31.40
2018-11-21T18:35:01.852Z,33.20
2018-11-21T18:36:01.941Z,33.90
2018-11-21T18:37:02.029Z,33.30
2018-11-21T18:38:02.126Z,34.10
2018-11-21T18:39:02.207Z,33.80
2018-11-21T18:40:02.294Z,34.20
2018-11-21T18:41:02.380Z,33.40
2018-11-21T18:42:02.468Z,34.80
2018-11-21T18:43:02.554Z,34.00
2018-11-21T18:44:02.649Z,35.80
2018-11-21T18:45:02.731Z,35.60
2018-11-21T18:46:02.820Z,35.60
2018-11-21T18:47:02.907Z,34.40
2018-11-21T18:48:03.001Z,34.70
2018-11-21T18:49:03.083Z,35.30
2018-11-21T18:50:03.173Z,34.80
2018-11-21T18:51:03.256Z,33.60
2018-11-21T18:52:03.343Z,34.20
2018-11-21T18:53:03.431Z,34.90
2018-11-21T18:54:03.521Z,33.80
2018-11-21T18:55:03.605Z,32.60
2018-11-21T18:56:03.692Z,34.10
2018-11-21T18:57:03.801Z,34.70
2018-11-21T18:58:03.868Z,35.00
2018-11-21T18:59:03.955Z,34.10
2018-11-21T19:00:04.045Z,34.20
2018-11-21T19:01:04.132Z,33.20
2018-11-21T19:02:04.220Z,32.90
2018-11-21T19:03:04.310Z,33.00
2018-11-21T19:04:04.401Z,33.50
2018-11-21T19:05:04.480Z,32.50
2018-11-21T19:06:04.567Z,32.30
2018-11-21T19:07:04.655Z,34.00
2018-11-21T19:08:04.743Z,34.40
2018-11-21T19:09:04.832Z,34.10
2018-11-21T19:10:04.920Z,32.70
2018-11-21T19:11:05.012Z,31.70
2018-11-21T19:12:05.101Z,32.00
2018-11-21T19:13:05.208Z,32.30
2018-11-21T19:14:05.284Z,33.90
2018-11-21T19:15:05.366Z,32.60
2018-11-21T19:16:05.455Z,31.90
2018-11-21T19:17:05.543Z,32.60
2018-11-21T19:18:05.629Z,32.70
2018-11-21T19:19:05.717Z,31.20
2018-11-21T19:20:05.807Z,32.10
2018-11-21T19:21:05.893Z,32.90
2018-11-21T19:22:05.988Z,31.70
2018-11-21T19:23:06.068Z,30.70
2018-11-21T19:24:06.157Z,32.00
2018-11-21T19:25:06.251Z,33.10
2018-11-21T19:26:06.331Z,32.70
2018-11-21T19:27:06.420Z,33.50
2018-11-21T19:28:06.508Z,33.10
2018-11-21T19:29:06.597Z,32.00
2018-11-21T19:30:06.685Z,32.10
2018-11-21T19:31:06.773Z,33.00
2018-11-21T19:32:06.862Z,32.60
2018-11-21T19:33:06.954Z,32.20
2018-11-21T19:34:07.040Z,33.00
2018-11-21T19:35:07.133Z,34.50
2018-11-21T19:36:07.217Z,34.00
2018-11-21T19:37:07.303Z,32.90
2018-11-21T19:38:07.391Z,32.20
2018-11-21T19:39:07.483Z,32.80
2018-11-21T19:40:07.572Z,33.00
2018-11-21T19:41:07.658Z,33.70
2018-11-21T19:42:07.744Z,33.70
2018-11-21T19:43:07.840Z,33.40
2018-11-21T19:44:07.917Z,34.30
2018-11-21T19:45:08.006Z,33.00
2018-11-21T19:46:08.090Z,35.10
2018-11-21T19:47:08.172Z,33.30
2018-11-21T19:48:08.265Z,33.70
2018-11-21T19:49:08.350Z,35.00
2018-11-21T19:50:08.440Z,33.30
2018-11-21T19:51:08.525Z,35.00